Time;durP1;ratioP1;P1;durP2;ratioP2;P2;SDS_P1;SDS_P2;PMS_P1;PMS_P2;Temp;Humidity;BMP_temperature;BMP_pressure;BME280_temperature;BME280_humidity;BME280_pressure;Samples;Min_cycle;Max_cycle;Signal;HPM_P1;HPM_P2
2023/11/26 00:02:22;;;;;;;9.00;5.45;;;-1.60;99.90;;;;;;5059767;28;20021;-71
2023/11/26 00:04:48;;;;;;;11.50;5.82;;;-1.50;99.90;;;;;;5059698;28;20021;-71
2023/11/26 00:07:13;;;;;;;12.63;5.63;;;-1.60;99.90;;;;;;5059635;28;20036;-72
2023/11/26 00:09:40;;;;;;;8.98;5.40;;;;;;;;;;5059558;28;20029;-72
2023/11/26 00:12:07;;;;;;;10.45;5.53;;;-1.60;97.40;;;;;;5059739;28;20078;-71
2023/11/26 00:14:36;;;;;;;9.55;5.88;;;-1.70;95.70;;;;;;5061322;28;20025;-71
2023/11/26 00:17:02;;;;;;;8.68;4.43;;;-1.70;99.90;;;;;;5063403;28;20036;-72
2023/11/26 00:19:29;;;;;;;6.95;4.53;;;-1.70;99.90;;;;;;5062156;28;20021;-71
2023/11/26 00:21:55;;;;;;;12.27;5.55;;;-1.70;99.90;;;;;;5063543;28;20052;-71
2023/11/26 00:24:21;;;;;;;8.80;4.95;;;-1.80;99.90;;;;;;5063120;28;20017;-71
2023/11/26 00:26:47;;;;;;;11.23;5.90;;;-1.70;99.90;;;;;;5061691;28;20083;-71
2023/11/26 00:29:13;;;;;;;12.73;5.47;;;-1.70;99.90;;;;;;5063060;28;20017;-71
2023/11/26 00:31:39;;;;;;;10.27;6.00;;;;;;;;;;5062064;28;20051;-71
2023/11/26 00:34:05;;;;;;;11.00;5.15;;;-1.70;99.90;;;;;;5061794;28;20320;-71
2023/11/26 00:36:30;;;;;;;11.20;6.25;;;-3.30;95.90;;;;;;5063039;28;20040;-71
2023/11/26 00:38:56;;;;;;;9.57;5.55;;;-1.50;99.90;;;;;;5063086;28;20251;-72
2023/11/26 00:41:24;;;;;;;14.88;5.65;;;-1.70;99.90;;;;;;5061609;28;20332;-72
2023/11/26 00:43:50;;;;;;;9.65;5.80;;;;;;;;;;5063029;28;20071;-71
2023/11/26 00:46:17;;;;;;;13.00;6.13;;;;;;;;;;5062998;28;20048;-71
2023/11/26 00:48:42;;;;;;;12.52;6.65;;;-1.50;99.90;;;;;;5062905;28;20245;-71
2023/11/26 00:51:08;;;;;;;14.27;6.80;;;;;;;;;;5062543;28;20029;-71
2023/11/26 00:53:35;;;;;;;11.57;6.88;;;;;;;;;;5062750;28;20033;-72
2023/11/26 00:56:01;;;;;;;10.57;6.32;;;;;;;;;;5062428;28;20040;-71
2023/11/26 00:58:28;;;;;;;11.75;7.22;;;;;;;;;;5062536;28;20369;-72
2023/11/26 01:00:54;;;;;;;15.13;7.22;;;;;;;;;;5062608;28;20044;-72
2023/11/26 01:03:20;;;;;;;13.25;6.60;;;-1.70;99.90;;;;;;5062547;28;20028;-72
2023/11/26 01:05:45;;;;;;;14.73;6.95;;;-1.60;99.90;;;;;;5062593;28;20232;-72
2023/11/26 01:08:11;;;;;;;16.33;7.38;;;;;;;;;;5062641;28;20037;-78
2023/11/26 01:10:37;;;;;;;12.73;7.25;;;-1.30;99.70;;;;;;5062599;28;20028;-71
2023/11/26 01:13:04;;;;;;;14.80;7.53;;;-1.70;96.60;;;;;;5067864;28;20078;-71
2023/11/26 01:15:30;;;;;;;15.23;6.88;;;-1.60;99.90;;;;;;5102861;28;20074;-72
2023/11/26 01:17:57;;;;;;;12.57;6.38;;;-1.70;96.70;;;;;;5103043;28;20023;-70
2023/11/26 01:20:22;;;;;;;15.07;7.22;;;-1.60;99.90;;;;;;5102748;28;20099;-71
2023/11/26 01:22:48;;;;;;;14.27;7.35;;;;;;;;;;5102450;28;20438;-70
2023/11/26 01:25:14;;;;;;;14.52;8.35;;;;;;;;;;5102369;28;20035;-70
2023/11/26 01:27:40;;;;;;;15.30;8.02;;;;;;;;;;5101797;28;20070;-72
2023/11/26 01:30:07;;;;;;;20.17;8.63;;;-1.50;99.90;;;;;;5102469;28;20050;-70
2023/11/26 01:32:35;;;;;;;19.75;9.27;;;-1.50;99.90;;;;;;5102178;28;20046;-71
2023/11/26 01:35:02;;;;;;;15.93;7.35;;;;;;;;;;5086298;28;20048;-71
2023/11/26 01:37:28;;;;;;;17.92;8.88;;;;;;;;;;5079544;28;20091;-70
2023/11/26 01:39:54;;;;;;;14.38;8.15;;;;;;;;;;5061560;28;20041;-70
2023/11/26 01:42:20;;;;;;;17.10;7.72;;;-1.50;99.90;;;;;;5061911;28;20067;-70
2023/11/26 01:44:46;;;;;;;15.90;7.93;;;;;;;;;;5077202;28;20284;-70
2023/11/26 01:47:13;;;;;;;16.02;7.50;;;-1.40;99.90;;;;;;5081548;28;20308;-71
2023/11/26 01:49:39;;;;;;;16.52;8.98;;;;;;;;;;5078143;28;20297;-70
2023/11/26 01:52:10;;;;;;;20.55;8.48;;;-0.90;99.90;;;;;;5061461;28;20017;-70
2023/11/26 01:54:37;;;;;;;17.40;8.18;;;-1.40;99.90;;;;;;5061529;28;20021;-71
2023/11/26 01:57:05;;;;;;;16.58;9.27;;;-1.30;99.90;;;;;;5061204;28;20340;-71
2023/11/26 01:59:31;;;;;;;15.85;8.85;;;;;;;;;;5060092;28;20344;-71
2023/11/26 02:01:57;;;;;;;22.83;9.18;;;-1.40;99.90;;;;;;5061444;28;20025;-70
2023/11/26 02:04:23;;;;;;;17.92;8.80;;;;;;;;;;5061435;28;20032;-71
2023/11/26 02:06:50;;;;;;;16.23;8.48;;;-1.40;99.10;;;;;;5061582;28;20060;-71
2023/11/26 02:09:16;;;;;;;13.52;7.70;;;-1.20;99.90;;;;;;5061206;28;20066;-71
2023/11/26 02:11:43;;;;;;;21.60;10.02;;;-1.10;97.70;;;;;;5061439;28;20271;-72
2023/11/26 02:14:10;;;;;;;18.33;7.40;;;-1.30;99.50;;;;;;5061430;28;20029;-71
2023/11/26 02:16:35;;;;;;;14.70;7.88;;;-1.30;99.90;;;;;;5061033;28;20229;-71
2023/11/26 02:19:05;;;;;;;16.50;8.15;;;-1.20;99.90;;;;;;5061168;28;20017;-70
2023/11/26 02:21:31;;;;;;;19.33;8.48;;;-1.20;99.90;;;;;;5061106;28;20374;-72
2023/11/26 02:23:57;;;;;;;15.50;8.45;;;-1.30;99.90;;;;;;5060974;28;20025;-71
2023/11/26 02:26:23;;;;;;;16.85;8.38;;;-1.00;99.90;;;;;;5060838;28;20117;-72
2023/11/26 02:28:49;;;;;;;18.00;8.65;;;;;;;;;;5061036;28;20040;-72
2023/11/26 02:31:14;;;;;;;15.82;8.18;;;-1.10;99.90;;;;;;5061012;28;20029;-72
2023/11/26 02:33:40;;;;;;;19.73;8.82;;;;;;;;;;5072168;28;20313;-71
2023/11/26 02:36:07;;;;;;;16.10;7.85;;;-1.40;99.90;;;;;;5080851;28;20377;-72
2023/11/26 02:38:33;;;;;;;14.63;8.23;;;-1.30;99.90;;;;;;5080298;28;20013;-72
2023/11/26 02:40:59;;;;;;;25.23;8.63;;;;;;;;;;5081317;28;20032;-72
2023/11/26 02:43:24;;;;;;;14.27;7.35;;;-1.20;99.90;;;;;;5080927;28;20035;-71
2023/11/26 02:45:56;;;;;;;16.10;8.50;;;-1.00;99.90;;;;;;5080928;28;20028;-72
2023/11/26 02:48:24;;;;;;;19.33;8.52;;;-1.30;98.00;;;;;;5080940;28;20330;-72
2023/11/26 02:50:50;;;;;;;16.17;8.38;;;-1.30;99.90;;;;;;5080934;28;20039;-71
2023/11/26 02:53:16;;;;;;;18.80;8.18;;;;;;;;;;5080936;28;20032;-76
2023/11/26 02:55:42;;;;;;;17.38;8.70;;;-1.20;99.90;;;;;;5081573;28;20029;-74
2023/11/26 02:58:11;;;;;;;17.88;8.43;;;-1.30;99.90;;;;;;5081830;28;20014;-77
2023/11/26 03:00:36;;;;;;;17.73;9.07;;;-1.40;99.90;;;;;;5082020;28;20025;-73
2023/11/26 03:03:03;;;;;;;15.90;8.38;;;-1.30;99.90;;;;;;5081515;28;20303;-78
2023/11/26 03:05:30;;;;;;;17.55;8.55;;;;;;;;;;5081423;28;20551;-71
2023/11/26 03:08:08;;;;;;;13.95;8.05;;;-1.40;98.40;;;;;;5080719;28;20028;-71
2023/11/26 03:13:22;;;;;;;17.38;9.18;;;;;;;;;;5083489;28;20065;-71
2023/11/26 03:15:49;;;;;;;22.13;9.55;;;-1.30;99.90;;;;;;5100723;28;20024;-71
2023/11/26 03:18:17;;;;;;;20.95;9.25;;;-1.60;98.20;;;;;;5100644;28;20024;-71
2023/11/26 03:20:43;;;;;;;16.73;7.47;;;-1.40;99.90;;;;;;5100558;28;20046;-70
2023/11/26 03:23:09;;;;;;;16.73;7.78;;;;;;;;;;5100746;28;20047;-73
2023/11/26 03:25:36;;;;;;;13.63;8.27;;;-1.40;99.90;;;;;;5099133;28;20406;-72
2023/11/26 03:28:04;;;;;;;13.80;7.28;;;-1.90;98.30;;;;;;5100580;28;20020;-71
2023/11/26 03:30:30;;;;;;;17.10;7.70;;;-1.50;99.90;;;;;;5100309;28;20038;-71
2023/11/26 03:32:57;;;;;;;16.10;7.30;;;-1.50;99.90;;;;;;5100329;28;20027;-71
2023/11/26 03:35:24;;;;;;;18.88;7.65;;;-1.50;98.40;;;;;;5100123;28;20032;-71
2023/11/26 03:37:53;;;;;;;17.70;7.88;;;-0.40;99.50;;;;;;5100265;28;20313;-73
2023/11/26 03:40:19;;;;;;;13.90;7.40;;;-1.50;99.90;;;;;;5100211;28;20028;-71
2023/11/26 03:42:45;;;;;;;13.82;8.55;;;;;;;;;;5100245;28;20039;-71
2023/11/26 03:45:11;;;;;;;15.65;7.97;;;-1.50;99.90;;;;;;5100106;28;20073;-71
2023/11/26 03:47:38;;;;;;;17.13;7.72;;;-1.60;99.90;;;;;;5100448;28;20027;-71
2023/11/26 03:50:09;;;;;;;16.30;7.40;;;-1.50;99.90;;;;;;5102947;28;20043;-72
2023/11/26 03:52:38;;;;;;;16.77;7.90;;;-1.40;99.10;;;;;;5104497;28;20028;-71
2023/11/26 03:55:04;;;;;;;13.05;7.43;;;-1.30;99.90;;;;;;5104158;28;20123;-71
2023/11/26 03:57:30;;;;;;;14.05;8.23;;;;;;;;;;5102700;28;20261;-70
2023/11/26 03:59:57;;;;;;;15.27;7.97;;;-1.20;99.90;;;;;;5103983;28;20028;-71
2023/11/26 04:02:23;;;;;;;16.35;7.55;;;-1.20;99.90;;;;;;5104193;28;20016;-71
2023/11/26 04:04:51;;;;;;;15.23;7.07;;;-1.10;99.90;;;;;;5104134;28;20099;-71
2023/11/26 04:07:20;;;;;;;15.27;7.75;;;-1.00;99.90;;;;;;5104200;28;20099;-72
2023/11/26 04:09:47;;;;;;;15.02;7.97;;;-0.70;99.90;;;;;;5102674;28;20028;-72
2023/11/26 04:12:13;;;;;;;18.08;7.97;;;-0.80;99.90;;;;;;5103679;28;20093;-71
2023/11/26 04:14:55;;;;;;;14.65;7.97;;;-0.80;99.20;;;;;;5091112;28;20032;-71
2023/11/26 04:17:23;;;;;;;15.13;7.35;;;-0.80;99.20;;;;;;5082933;28;20031;-70
2023/11/26 04:19:49;;;;;;;19.23;8.18;;;-0.70;99.90;;;;;;5083487;28;20021;-73
2023/11/26 04:22:17;;;;;;;18.67;7.82;;;-0.70;99.90;;;;;;5083154;28;20062;-71
2023/11/26 04:24:43;;;;;;;15.30;7.90;;;-0.60;99.90;;;;;;5083146;28;20081;-71
2023/11/26 04:27:09;;;;;;;13.93;8.00;;;-0.60;99.40;;;;;;5081712;28;20056;-72
2023/11/26 04:29:35;;;;;;;18.88;8.18;;;-0.80;99.90;;;;;;5083301;28;20021;-71
2023/11/26 04:32:01;;;;;;;14.32;7.40;;;;;;;;;;5083071;28;20039;-72
2023/11/26 04:34:27;;;;;;;15.13;7.70;;;-0.80;99.90;;;;;;5083287;28;20020;-72
2023/11/26 04:36:53;;;;;;;19.40;8.68;;;;;;;;;;5082924;28;20108;-72
2023/11/26 04:39:18;;;;;;;15.98;8.45;;;-0.50;99.90;;;;;;5082912;28;20043;-72
2023/11/26 04:41:44;;;;;;;16.25;8.52;;;;;;;;;;5082982;28;20032;-72
2023/11/26 04:44:10;;;;;;;28.75;9.43;;;-0.70;99.90;;;;;;5082809;28;20017;-71
2023/11/26 04:46:36;;;;;;;23.67;9.65;;;-0.50;99.90;;;;;;5082945;28;20032;-71
2023/11/26 04:49:02;;;;;;;20.15;10.85;;;;;;;;;;5083035;28;20295;-78
2023/11/26 04:51:27;;;;;;;20.73;9.93;;;-0.60;99.90;;;;;;5082747;28;20386;-72
2023/11/26 04:53:53;;;;;;;19.65;8.20;;;-0.30;99.90;;;;;;5082918;28;20024;-72
2023/11/26 04:56:20;;;;;;;14.50;8.38;;;;;;;;;;5082691;28;20040;-73
2023/11/26 04:58:46;;;;;;;15.30;8.25;;;-0.50;99.90;;;;;;5082824;28;20016;-72
2023/11/26 05:01:17;;;;;;;17.45;7.45;;;-0.90;99.90;;;;;;5081529;28;20070;-71
2023/11/26 05:03:44;;;;;;;15.77;7.93;;;-0.60;99.90;;;;;;5081281;28;20066;-72
2023/11/26 05:06:13;;;;;;;16.17;7.80;;;-0.60;99.90;;;;;;5082490;28;20414;-72
2023/11/26 05:08:39;;;;;;;16.38;8.40;;;;;;;;;;5082482;28;20027;-72
2023/11/26 05:11:06;;;;;;;15.48;7.78;;;-0.60;99.90;;;;;;5082440;28;20063;-72
2023/11/26 05:13:32;;;;;;;17.27;7.70;;;;;;;;;;5082666;28;20154;-71
2023/11/26 05:15:58;;;;;;;14.77;8.15;;;-0.40;99.90;;;;;;5082215;28;20559;-72
2023/11/26 05:18:24;;;;;;;16.05;7.82;;;;;;;;;;5082128;28;20095;-72
2023/11/26 05:20:51;;;;;;;16.73;7.82;;;-0.60;99.90;;;;;;5082165;28;20020;-71
2023/11/26 05:23:17;;;;;;;15.45;7.47;;;-0.70;99.90;;;;;;5082101;28;20096;-72
2023/11/26 05:25:43;;;;;;;16.08;8.00;;;;;;;;;;5082216;28;20056;-71
2023/11/26 05:28:10;;;;;;;13.68;6.95;;;;;;;;;;5089615;28;20108;-72
2023/11/26 05:30:36;;;;;;;17.05;8.20;;;-0.40;99.90;;;;;;5082577;28;20048;-73
2023/11/26 05:33:02;;;;;;;13.75;7.75;;;;;;;;;;5099196;28;20047;-71
2023/11/26 05:35:28;;;;;;;12.95;7.10;;;-0.50;99.60;;;;;;5102385;28;20089;-71
2023/11/26 05:37:55;;;;;;;17.95;7.93;;;-0.40;99.60;;;;;;5083641;28;20036;-71
2023/11/26 05:40:21;;;;;;;20.92;8.07;;;-0.30;99.90;;;;;;5082048;28;20247;-71
2023/11/26 05:42:49;;;;;;;16.80;7.63;;;-0.20;99.90;;;;;;5082150;28;20027;-74
2023/11/26 05:45:15;;;;;;;14.52;8.20;;;-0.70;99.90;;;;;;5080539;28;20032;-71
2023/11/26 05:47:40;;;;;;;13.20;7.72;;;-0.40;99.90;;;;;;5081206;28;20190;-70
2023/11/26 05:50:07;;;;;;;15.55;7.25;;;-0.30;99.40;;;;;;5081391;28;20021;-71
2023/11/26 05:52:33;;;;;;;16.08;7.88;;;;;;;;;;5081384;28;20020;-70
2023/11/26 05:54:58;;;;;;;12.65;7.43;;;;;;;;;;5081182;28;20117;-72
2023/11/26 05:57:24;;;;;;;14.00;7.38;;;-0.70;99.90;;;;;;5081484;28;20491;-73
2023/11/26 05:59:50;;;;;;;21.85;8.68;;;-0.40;99.90;;;;;;5081560;28;20025;-72
2023/11/26 06:02:16;;;;;;;15.90;8.38;;;;;;;;;;5081723;28;20070;-71
2023/11/26 06:04:41;;;;;;;11.57;6.93;;;-0.20;99.90;;;;;;5081503;28;20024;-71
2023/11/26 06:07:08;;;;;;;14.60;7.60;;;-0.30;99.90;;;;;;5081737;28;20016;-72
2023/11/26 06:09:34;;;;;;;12.20;7.35;;;;;;;;;;5081745;28;20079;-72
2023/11/26 06:12:00;;;;;;;14.23;8.82;;;-0.40;99.90;;;;;;5081129;28;20088;-71
2023/11/26 06:14:26;;;;;;;13.35;8.00;;;-0.30;99.90;;;;;;5081321;28;20020;-71
2023/11/26 06:16:51;;;;;;;16.30;8.35;;;-0.30;99.90;;;;;;5081327;28;20050;-71
2023/11/26 06:19:17;;;;;;;20.48;9.13;;;-0.30;99.90;;;;;;5081145;28;20029;-71
2023/11/26 06:21:43;;;;;;;17.08;8.27;;;-0.20;99.90;;;;;;5080839;28;20313;-70
2023/11/26 06:24:09;;;;;;;16.50;8.05;;;;;;;;;;5081116;28;20114;-72
2023/11/26 06:26:35;;;;;;;15.70;8.98;;;0.40;99.90;;;;;;5080961;28;20048;-73
2023/11/26 06:29:01;;;;;;;14.52;7.20;;;0.20;99.90;;;;;;5081103;28;20088;-74
2023/11/26 06:31:29;;;;;;;14.45;8.48;;;0.20;99.90;;;;;;5081070;28;20090;-72
2023/11/26 06:33:57;;;;;;;13.68;8.07;;;0.40;99.90;;;;;;5081109;28;20088;-72
2023/11/26 06:36:24;;;;;;;20.02;8.50;;;0.40;99.90;;;;;;5081160;28;20032;-72
2023/11/26 06:38:54;;;;;;;15.63;8.18;;;0.40;99.70;;;;;;5081145;28;20025;-73
2023/11/26 06:41:34;;;;;;;12.50;7.53;;;0.50;99.90;;;;;;5080816;28;20342;-71
2023/11/26 06:44:00;;;;;;;16.95;8.95;;;;;;;;;;5080877;28;20034;-72
2023/11/26 06:46:27;;;;;;;14.05;8.27;;;0.80;99.90;;;;;;5080694;28;20330;-71
2023/11/26 06:48:53;;;;;;;16.00;8.63;;;0.70;99.80;;;;;;5081034;28;20039;-71
2023/11/26 06:51:20;;;;;;;13.38;7.75;;;0.80;99.80;;;;;;5080870;28;20036;-72
2023/11/26 06:53:50;;;;;;;15.30;8.73;;;0.40;99.90;;;;;;5081166;28;20028;-71
2023/11/26 06:56:16;;;;;;;16.30;8.13;;;0.70;99.90;;;;;;5080577;28;20040;-70
2023/11/26 06:58:43;;;;;;;12.75;8.65;;;0.90;99.90;;;;;;5080426;28;20028;-71
2023/11/26 07:01:11;;;;;;;15.20;9.50;;;0.90;99.70;;;;;;5080741;28;20040;-72
2023/11/26 07:03:38;;;;;;;20.23;9.25;;;0.90;99.90;;;;;;5080724;28;20070;-72
2023/11/26 07:06:09;;;;;;;20.30;11.40;;;1.00;99.80;;;;;;5079396;28;20062;-71
2023/11/26 07:08:38;;;;;;;20.70;9.45;;;1.00;99.90;;;;;;5080657;28;20032;-72
2023/11/26 07:11:07;;;;;;;18.30;8.88;;;1.00;99.90;;;;;;5080312;28;20024;-72
2023/11/26 07:13:33;;;;;;;21.48;10.68;;;1.00;99.90;;;;;;5080629;28;20016;-71
2023/11/26 07:16:00;;;;;;;19.58;10.23;;;;;;;;;;5080592;28;20140;-71
2023/11/26 07:18:26;;;;;;;17.60;9.90;;;;;;;;;;5080608;28;20025;-72
2023/11/26 07:20:51;;;;;;;17.88;9.88;;;1.20;99.90;;;;;;5080587;28;20053;-71
2023/11/26 07:23:17;;;;;;;18.80;10.82;;;1.20;99.90;;;;;;5078724;28;20243;-72
2023/11/26 07:25:43;;;;;;;19.92;9.93;;;1.20;99.90;;;;;;5079767;28;20244;-72
2023/11/26 07:28:11;;;;;;;17.90;10.07;;;;;;;;;;5080191;28;20420;-71
2023/11/26 07:30:41;;;;;;;20.95;10.23;;;1.50;99.90;;;;;;5080377;28;20205;-72
2023/11/26 07:33:07;;;;;;;16.88;9.25;;;1.30;99.90;;;;;;5080377;28;20084;-71
2023/11/26 07:35:33;;;;;;;17.35;10.15;;;;;;;;;;5080245;28;20070;-72
2023/11/26 07:38:03;;;;;;;18.65;11.88;;;;;;;;;;5080293;28;20077;-74
2023/11/26 07:40:30;;;;;;;18.88;10.00;;;1.80;99.90;;;;;;5080252;28;20063;-71
2023/11/26 07:42:56;;;;;;;23.35;11.65;;;;;;;;;;5080522;28;20024;-72
2023/11/26 07:45:22;;;;;;;19.35;11.02;;;;;;;;;;5080760;28;20193;-73
2023/11/26 07:47:48;;;;;;;17.02;10.57;;;1.60;99.90;;;;;;5081352;28;20021;-75
2023/11/26 07:50:13;;;;;;;17.25;9.75;;;1.70;99.90;;;;;;5081549;28;20025;-73
2023/11/26 07:52:39;;;;;;;15.90;10.48;;;;;;;;;;5081407;28;20032;-74
2023/11/26 07:55:06;;;;;;;19.10;10.38;;;1.60;99.90;;;;;;5080893;28;20036;-79
2023/11/26 07:57:32;;;;;;;16.65;9.80;;;1.90;99.90;;;;;;5080582;28;20347;-71
2023/11/26 08:00:02;;;;;;;15.88;9.27;;;1.60;99.90;;;;;;5079838;28;20194;-71
2023/11/26 08:02:29;;;;;;;17.17;8.32;;;1.80;99.90;;;;;;5079740;28;20020;-71
2023/11/26 08:04:58;;;;;;;18.92;10.60;;;2.00;99.90;;;;;;5079801;28;20074;-70
2023/11/26 08:07:24;;;;;;;14.90;10.07;;;2.00;99.90;;;;;;5079753;28;20043;-71
2023/11/26 08:09:53;;;;;;;14.07;8.52;;;2.10;99.90;;;;;;5078450;28;20024;-70
2023/11/26 08:12:24;;;;;;;15.10;8.43;;;2.20;99.70;;;;;;5079804;28;20091;-70
2023/11/26 08:14:55;;;;;;;14.63;9.27;;;2.10;99.90;;;;;;5079676;28;20035;-68
2023/11/26 08:17:22;;;;;;;14.07;8.80;;;2.30;99.90;;;;;;5079854;28;20048;-69
2023/11/26 08:19:50;;;;;;;13.30;8.32;;;;;;;;;;5079515;28;20032;-69
2023/11/26 08:22:16;;;;;;;9.90;6.70;;;;;;;;;;5079862;28;20024;-70
2023/11/26 08:24:46;;;;;;;12.52;6.15;;;;;;;;;;5079563;28;20312;-71
2023/11/26 08:27:14;;;;;;;9.35;6.05;;;2.20;99.90;;;;;;5079501;28;20086;-71
2023/11/26 08:29:43;;;;;;;11.25;7.38;;;;;;;;;;5077897;28;20020;-70
2023/11/26 08:32:10;;;;;;;9.45;5.88;;;2.40;98.30;;;;;;5079763;28;20095;-73
2023/11/26 08:34:39;;;;;;;8.43;4.82;;;2.20;99.90;;;;;;5078813;28;20024;-72
2023/11/26 08:37:06;;;;;;;11.02;5.72;;;2.30;97.70;;;;;;5082458;28;20045;-79
2023/11/26 08:39:34;;;;;;;10.23;6.28;;;3.30;98.70;;;;;;5084251;28;20058;-76
2023/11/26 08:42:02;;;;;;;9.27;6.20;;;2.20;99.90;;;;;;5084078;28;20332;-73
2023/11/26 08:44:30;;;;;;;6.57;4.68;;;2.20;99.90;;;;;;5084202;28;20020;-71
2023/11/26 08:46:56;;;;;;;12.03;3.60;;;2.40;99.90;;;;;;5084039;28;20025;-77
2023/11/26 08:49:23;;;;;;;9.30;5.57;;;;;;;;;;5083787;28;20273;-72
2023/11/26 08:51:49;;;;;;;4.90;2.67;;;2.70;99.10;;;;;;5082755;28;20062;-73
2023/11/26 08:54:15;;;;;;;9.13;5.78;;;2.60;99.90;;;;;;5084974;28;20024;-73
2023/11/26 08:56:41;;;;;;;10.65;5.68;;;2.30;99.90;;;;;;5083724;28;20039;-72
2023/11/26 08:59:07;;;;;;;9.02;5.10;;;;;;;;;;5083097;28;20024;-72
2023/11/26 09:01:33;;;;;;;6.32;3.80;;;3.00;95.30;;;;;;5083192;28;20062;-72
2023/11/26 09:03:59;;;;;;;6.90;4.05;;;;;;;;;;5083246;28;20095;-72
2023/11/26 09:06:25;;;;;;;6.97;4.32;;;3.00;99.90;;;;;;5083021;28;20023;-72
2023/11/26 09:08:51;;;;;;;5.60;3.40;;;2.80;99.90;;;;;;5082923;28;20020;-71
2023/11/26 09:11:17;;;;;;;8.43;4.93;;;3.20;99.90;;;;;;5082918;28;20280;-71
2023/11/26 09:13:43;;;;;;;4.78;3.80;;;;;;;;;;5082709;28;20197;-74
2023/11/26 09:16:09;;;;;;;6.95;3.78;;;;;;;;;;5082628;28;20051;-71
2023/11/26 09:18:37;;;;;;;6.68;4.10;;;;;;;;;;5082649;28;20009;-72
2023/11/26 09:21:05;;;;;;;6.63;4.40;;;3.20;95.20;;;;;;5082550;28;20018;-72
2023/11/26 09:23:32;;;;;;;7.25;4.15;;;2.80;99.90;;;;;;5082381;28;20351;-71
2023/11/26 09:26:02;;;;;;;5.53;3.80;;;;;;;;;;5082304;28;20346;-71
2023/11/26 09:28:28;;;;;;;7.95;4.53;;;;;;;;;;5082536;28;20048;-71
2023/11/26 09:30:54;;;;;;;6.82;3.67;;;;;;;;;;5082525;28;20029;-74
2023/11/26 09:33:22;;;;;;;7.40;4.85;;;2.80;99.90;;;;;;5082385;28;20249;-71
2023/11/26 09:35:47;;;;;;;7.05;4.18;;;2.80;99.90;;;;;;5082126;28;20675;-72
2023/11/26 09:38:14;;;;;;;9.30;4.47;;;2.90;99.90;;;;;;5082497;28;20048;-73
2023/11/26 09:40:43;;;;;;;7.95;5.03;;;3.00;92.70;;;;;;5081055;28;20055;-72
2023/11/26 09:43:09;;;;;;;5.40;4.25;;;;;;;;;;5082369;28;20028;-82
2023/11/26 09:45:37;;;;;;;11.20;4.43;;;3.20;94.10;;;;;;5082388;28;20036;-74
2023/11/26 09:48:05;;;;;;;7.95;3.33;;;3.20;91.50;;;;;;5081818;28;20300;-73
2023/11/26 09:50:30;;;;;;;5.45;3.72;;;3.40;97.40;;;;;;5082009;28;20031;-74
2023/11/26 09:52:57;;;;;;;6.28;3.85;;;3.30;99.50;;;;;;5082149;28;20044;-74
2023/11/26 09:55:23;;;;;;;5.95;3.88;;;3.40;91.20;;;;;;5081328;28;20036;-74
2023/11/26 09:57:49;;;;;;;3.90;3.08;;;;;;;;;;5080513;28;20032;-74
2023/11/26 10:00:17;;;;;;;5.43;2.97;;;3.50;90.60;;;;;;5079071;28;20044;-74
2023/11/26 10:02:42;;;;;;;7.80;3.85;;;3.70;98.60;;;;;;5079841;28;20355;-74
2023/11/26 10:05:23;;;;;;;6.18;3.35;;;3.50;98.50;;;;;;5080063;28;20017;-74
2023/11/26 10:07:52;;;;;;;4.95;3.22;;;;;;;;;;5080880;28;20016;-74
2023/11/26 10:10:18;;;;;;;4.00;2.83;;;3.40;96.60;;;;;;5079930;28;20019;-74
2023/11/26 10:12:54;;;;;;;4.05;2.75;;;3.70;90.10;;;;;;5080914;28;20212;-74
2023/11/26 10:15:22;;;;;;;5.00;2.95;;;3.70;90.00;;;;;;5082973;28;20040;-75
2023/11/26 10:18:09;;;;;;;4.28;2.63;;;3.70;88.20;;;;;;5081558;28;20012;-78
2023/11/26 10:20:40;;;;;;;3.30;2.15;;;3.60;87.40;;;;;;5083606;28;20035;-75
2023/11/26 10:23:10;;;;;;;4.65;3.25;;;3.60;86.50;;;;;;5083274;28;20088;-74
2023/11/26 10:25:48;;;;;;;7.07;2.88;;;3.70;86.50;;;;;;5081807;28;20419;-74
2023/11/26 10:28:17;;;;;;;3.05;2.78;;;4.00;96.00;;;;;;5081822;28;20070;-73
2023/11/26 10:30:43;;;;;;;;;;;3.90;86.70;;;;;;5082111;28;20083;-77
2023/11/26 10:33:11;;;;;;;3.20;2.00;;;3.90;83.80;;;;;;5081766;28;19909;-73
2023/11/26 10:35:51;;;;;;;5.22;1.95;;;3.50;94.90;;;;;;5081212;28;20159;-74
2023/11/26 10:38:18;;;;;;;2.88;2.15;;;3.50;84.00;;;;;;5081179;28;20030;-74
2023/11/26 10:40:45;;;;;;;1.52;1.33;;;3.40;95.60;;;;;;5081078;28;20013;-74
2023/11/26 10:43:11;;;;;;;3.13;2.15;;;;;;;;;;5081288;28;20039;-74
2023/11/26 10:45:39;;;;;;;2.75;2.17;;;3.30;95.40;;;;;;5081131;28;20028;-74
2023/11/26 10:48:14;;;;;;;2.40;1.50;;;3.60;86.50;;;;;;5081180;28;20055;-74
2023/11/26 10:50:47;;;;;;;2.92;1.60;;;3.20;95.30;;;;;;5081011;28;20013;-74
2023/11/26 10:53:27;;;;;;;2.80;1.95;;;3.40;84.50;;;;;;5081283;28;20028;-73
2023/11/26 10:55:55;;;;;;;2.35;1.95;;;3.50;92.90;;;;;;5082595;28;20047;-73
2023/11/26 10:58:28;;;;;;;2.67;2.13;;;4.10;94.50;;;;;;5082458;28;20013;-74
2023/11/26 11:00:57;;;;;;;1.95;1.63;;;4.20;82.00;;;;;;5080615;28;20036;-74
2023/11/26 11:03:24;;;;;;;2.92;2.65;;;4.20;81.10;;;;;;5080623;28;20092;-74
2023/11/26 11:05:50;;;;;;;2.05;1.27;;;3.90;82.80;;;;;;5080496;28;20351;-74
2023/11/26 11:08:17;;;;;;;2.78;1.38;;;4.10;81.50;;;;;;5080815;28;20029;-73
2023/11/26 11:10:49;;;;;;;2.35;2.13;;;4.60;93.00;;;;;;5080633;28;20349;-74
2023/11/26 11:13:16;;;;;;;2.17;1.10;;;4.50;78.50;;;;;;5080473;28;20031;-73
2023/11/26 11:15:43;;;;;;;2.92;1.30;;;4.40;77.20;;;;;;5080342;28;20032;-73
2023/11/26 11:18:43;;;;;;;1.60;1.48;;;3.30;77.20;;;;;;5080764;28;20043;-74
2023/11/26 11:21:13;;;;;;;1.75;1.58;;;4.10;78.90;;;;;;5080460;28;20051;-73
2023/11/26 11:23:47;;;;;;;2.92;2.20;;;4.00;76.90;;;;;;5080701;28;20016;-73
2023/11/26 11:26:15;;;;;;;2.03;1.05;;;3.80;91.40;;;;;;5080213;28;20356;-73
2023/11/26 11:28:48;;;;;;;2.38;1.40;;;3.70;75.90;;;;;;5080363;28;20631;-75
2023/11/26 11:31:21;;;;;;;2.90;1.75;;;3.40;91.60;;;;;;5080455;28;20185;-74
2023/11/26 11:33:59;;;;;;;1.50;1.15;;;3.40;78.70;;;;;;5080492;28;20032;-73
2023/11/26 11:39:10;;;;;;;0.82;0.68;;;3.80;75.80;;;;;;5080391;28;20024;-73
2023/11/26 11:41:58;;;;;;;1.80;1.48;;;4.10;84.50;;;;;;5079012;28;20039;-73
2023/11/26 11:44:32;;;;;;;1.50;1.15;;;4.00;90.30;;;;;;5080022;28;20016;-73
2023/11/26 11:47:00;;;;;;;2.45;1.25;;;4.10;73.40;;;;;;5080177;28;20345;-73
2023/11/26 11:49:31;;;;;;;4.10;1.70;;;;;;;;;;5080459;28;20025;-74
2023/11/26 11:51:59;;;;;;;2.20;1.00;;;3.70;91.10;;;;;;5080382;28;20066;-74
2023/11/26 11:54:25;;;;;;;7.70;1.63;;;;;;;;;;5080238;28;20032;-74
2023/11/26 11:56:58;;;;;;;2.58;1.02;;;3.90;91.20;;;;;;5080296;28;20260;-74
2023/11/26 11:59:24;;;;;;;1.95;1.27;;;4.00;90.20;;;;;;5080653;28;20038;-74
2023/11/26 12:01:51;;;;;;;3.33;0.93;;;4.00;90.40;;;;;;5080808;28;20025;-74
2023/11/26 12:04:16;;;;;;;2.35;1.77;;;4.00;90.40;;;;;;5080758;28;20204;-74
2023/11/26 12:06:49;;;;;;;2.50;1.73;;;4.30;76.80;;;;;;5080386;28;20080;-74
2023/11/26 12:09:15;;;;;;;1.02;0.77;;;;;;;;;;5080201;28;20395;-74
2023/11/26 12:11:44;;;;;;;1.58;1.48;;;4.40;90.00;;;;;;5083528;28;20016;-74
2023/11/26 12:14:10;;;;;;;1.15;1.00;;;;;;;;;;5083969;28;20024;-75
2023/11/26 12:16:37;;;;;;;3.05;2.60;;;5.00;70.20;;;;;;5083504;28;20031;-74
2023/11/26 12:19:03;;;;;;;2.70;1.23;;;4.60;69.80;;;;;;5082302;28;20020;-76
2023/11/26 12:21:29;;;;;;;1.60;1.10;;;4.70;67.00;;;;;;5083644;28;20044;-74
2023/11/26 12:23:55;;;;;;;1.27;1.02;;;;;;;;;;5083554;28;20320;-74
2023/11/26 12:26:21;;;;;;;1.83;0.65;;;;;;;;;;5083896;28;20052;-74
2023/11/26 12:28:47;;;;;;;0.73;0.70;;;3.90;86.00;;;;;;5084253;28;20020;-74
2023/11/26 12:31:14;;;;;;;2.75;1.33;;;4.20;70.90;;;;;;5083819;28;20374;-74
2023/11/26 12:33:43;;;;;;;1.42;1.00;;;3.40;70.60;;;;;;5082933;28;20096;-74
2023/11/26 12:36:14;;;;;;;1.92;1.23;;;3.90;70.80;;;;;;5083406;28;20107;-74
2023/11/26 12:38:42;;;;;;;2.90;1.30;;;4.00;69.80;;;;;;5083016;28;20135;-74
2023/11/26 12:41:09;;;;;;;1.77;1.08;;;3.80;74.00;;;;;;5083592;28;20048;-73
2023/11/26 12:43:41;;;;;;;1.05;0.55;;;3.50;70.30;;;;;;5083611;28;20016;-73
2023/11/26 12:46:08;;;;;;;1.98;1.00;;;3.10;68.80;;;;;;5083613;28;20024;-73
2023/11/26 12:48:34;;;;;;;1.20;1.10;;;;;;;;;;5082089;28;20063;-73
2023/11/26 12:51:00;;;;;;;2.47;1.20;;;1.70;72.80;;;;;;5083798;28;20024;-73
2023/11/26 12:53:26;;;;;;;1.77;1.33;;;2.20;91.00;;;;;;5082114;28;20212;-73
2023/11/26 12:55:52;;;;;;;1.77;1.10;;;2.00;91.40;;;;;;5083035;28;20032;-73
2023/11/26 12:58:28;;;;;;;1.48;1.27;;;2.00;91.50;;;;;;5083569;28;20039;-73
2023/11/26 13:00:55;;;;;;;3.28;1.60;;;2.10;92.00;;;;;;5083952;28;20028;-74
2023/11/26 13:03:21;;;;;;;3.20;1.45;;;1.90;81.90;;;;;;5085512;28;20096;-73
2023/11/26 13:05:47;;;;;;;3.58;0.80;;;1.80;92.40;;;;;;5082872;28;20021;-73
2023/11/26 13:08:24;;;;;;;0.60;0.60;;;1.80;92.40;;;;;;5082933;28;20131;-74
2023/11/26 13:10:50;;;;;;;2.10;1.30;;;;;;;;;;5082371;28;20036;-74
2023/11/26 13:13:26;;;;;;;2.05;1.33;;;1.60;92.90;;;;;;5082572;28;20024;-72
2023/11/26 13:15:55;;;;;;;2.40;1.33;;;1.50;85.50;;;;;;5082345;28;20261;-73
2023/11/26 13:18:21;;;;;;;2.50;1.40;;;;;;;;;;5082415;28;20339;-73